Buoy 53524

sailwx.info

Track history (hours):
 
Tides and Currents Weather Stations Pressure Air Temp Water Temp Dewpoint Dewpoint Depression Visibility Wind Speed Wind Dir Waves Ship Positions

Drifting buoy 53524

Last reported at 2015-May-25 21:00 UTC. Time now 2015-May-25 23:41 UTC.
Position S 15°27' E 070°45'.

Barometer 1014.0 mb
Water temperature 28.2 ° C

Date/timePositionNaut miles runAvg speedWind from/ knotsBaromVisibWave heightAir tempDewpointWater temp
2015-May-25 21:00S 15°27' E 070°45'8 0.8 1014.0 28.2
2015-May-25 10:00S 15°19' E 070°48'0 0.0 1012.3 28.4
2015-May-25 09:00S 15°19' E 070°48'3 0.7 1012.3 28.4
2015-May-25 05:00S 15°17' E 070°50'5 1.0 1014.5 28.2
2015-May-25 00:00S 15°12' E 070°52'2 0.3 1012.8 28.2
2015-May-24 17:00S 15°10' E 070°53'0 0.5 1014.4 28.2
2015-May-24 16:00S 15°10' E 070°53'1 0.6 1014.4 28.3
2015-May-24 14:00S 15°09' E 070°54'2 0.5 1013.4 28.3
2015-May-24 10:00S 15°08' E 070°56'6 0.6 1012.3 28.3
2015-May-24 00:00S 15°02' E 070°56'8 0.8 1013.2 28.2
2015-May-23 14:00S 14°54' E 070°59'0 0.0 1014.1 28.2
2015-May-23 13:00S 14°54' E 070°59'4 0.5 1013.8 28.2
2015-May-23 05:00S 14°53' E 071°02'3 0.2 1014.6 28.3
2015-May-22 17:00S 14°51' E 071°05'0 0.5 1013.7 28.3
2015-May-22 16:00S 14°51' E 071°05'10 0.5 1013.5 28.3
2015-May-21 22:00S 14°42' E 071°07'4 1.8 1012.7 28.2
2015-May-21 20:00S 14°38' E 071°08'3 0.5 1013.5 28.3
2015-May-21 14:00S 14°36' E 071°10'1 0.8 1013.4 28.3
2015-May-21 13:00S 14°36' E 071°11'7 0.9 1013.0 28.3
2015-May-21 05:00S 14°33' E 071°17'2 0.6 1014.2 28.2
2015-May-21 01:00S 14°33' E 071°20'1 0.6 1012.6 28.2
2015-May-20 23:00S 14°33' E 071°21'1 0.5 1011.9 28.2
2015-May-20 22:00S 14°33' E 071°21'0 0.0 1012.5 28.2
2015-May-20 21:00S 14°33' E 071°21'1 0.1 1013.1 28.2
2015-May-20 12:00S 14°33' E 071°22'1 0.3 1011.4 28.4
2015-May-20 09:00S 14°33' E 071°22'5 0.8 1010.8 28.3
2015-May-20 03:00S 14°28' E 071°23'6 0.7 1011.7 28.2
2015-May-19 18:00S 14°23' E 071°27'0 0.0 1012.0 28.2
2015-May-19 17:00S 14°23' E 071°27'4 1.2 1011.8 28.2
2015-May-19 14:00S 14°21' E 071°30'1 0.4 1010.9 28.2
2015-May-19 12:00S 14°21' E 071°31'2 0.7 1009.6 28.2
2015-May-19 09:00S 14°21' E 071°33'3 0.9 1009.3 28.3
2015-May-19 05:00S 14°20' E 071°36'1 0.4 1012.0 28.2
2015-May-19 02:00S 14°19' E 071°37'2 2.0 1011.0 28.2
2015-May-19 01:00S 14°19' E 071°39'0 0.0 1010.5 28.2
2015-May-19 00:00S 14°19' E 071°39'1 0.5 1009.9 28.2
2015-May-18 22:00S 14°19' E 071°40'1 0.7 1010.0 28.2
2015-May-18 20:00S 14°18' E 071°42'0 0.0 1011.0 28.2
2015-May-18 19:00S 14°18' E 071°42'0 0.0 1011.3 28.2
2015-May-18 17:00S 14°18' E 071°42'4 0.9 1011.9 28.2
2015-May-18 13:00S 14°17' E 071°45'1 0.4 1010.0 28.3
2015-May-18 11:00S 14°16' E 071°45'0 0.0 1009.2 28.3
2015-May-18 09:00S 14°16' E 071°45'3 0.6 1009.3 28.3
2015-May-18 05:00S 14°14' E 071°47'0 0.3 1011.2 28.3
2015-May-18 04:00S 14°14' E 071°47'2 0.7 1010.9 28.2
2015-May-18 01:00S 14°13' E 071°49'3 1.4 1009.8 28.2
2015-May-17 23:00S 14°11' E 071°51'0 0.0 1008.7 28.2
2015-May-17 22:00S 14°11' E 071°51'0 0.0 1009.1 28.2
2015-May-17 21:00S 14°11' E 071°51'3 0.9 1009.1 28.2
2015-May-17 17:00S 14°09' E 071°54'1 0.7 1010.5 28.2
2015-May-17 16:00S 14°09' E 071°55'4 1.2 1010.9 28.3
2015-May-17 13:00S 14°08' E 071°58'9 0.7 1009.2 28.3
2015-May-17 00:00S 14°09' E 072°07'3 0.8 1009.3 28.2
2015-May-16 21:00S 14°09' E 072°10'2 0.2 1009.6 28.2
2015-May-16 11:00S 14°09' E 072°12'0 0.0 1009.2 28.3
2015-May-16 10:00S 14°09' E 072°12'2 1.6 1009.4 28.3
2015-May-16 09:00S 14°07' E 072°13'2 1.7 1009.9 28.3
2015-May-16 08:00S 14°07' E 072°14'0 0.0 1010.7 28.3
2015-May-16 05:00S 14°07' E 072°14'1 0.4 1012.4 28.3
2015-May-16 02:00S 14°08' E 072°16'3 1.7 1011.1 28.2
2015-May-16 00:00S 14°06' E 072°19'   1010.5 28.2
Track history (hours):
 
Tides and Currents Weather Stations Pressure Air Temp Water Temp Dewpoint Dewpoint Depression Visibility Wind Speed Wind Dir Waves Ship Positions

Drifting buoy 53524

Last reported at 2015-May-25 21:00 UTC. Time now 2015-May-25 23:41 UTC.
Position S 15°27' E 070°45'.

Barometer 1014.0 mb
Water temperature 28.2 ° C

Date/timePositionNaut miles runAvg speedWind from/ knotsBaromVisibWave heightAir tempDewpointWater temp
2015-May-25 21:00S 15°27' E 070°45'8 0.8 1014.0 28.2
2015-May-25 10:00S 15°19' E 070°48'0 0.0 1012.3 28.4
2015-May-25 09:00S 15°19' E 070°48'3 0.7 1012.3 28.4
2015-May-25 05:00S 15°17' E 070°50'5 1.0 1014.5 28.2
2015-May-25 00:00S 15°12' E 070°52'2 0.3 1012.8 28.2
2015-May-24 17:00S 15°10' E 070°53'0 0.5 1014.4 28.2
2015-May-24 16:00S 15°10' E 070°53'1 0.6 1014.4 28.3
2015-May-24 14:00S 15°09' E 070°54'2 0.5 1013.4 28.3
2015-May-24 10:00S 15°08' E 070°56'6 0.6 1012.3 28.3
2015-May-24 00:00S 15°02' E 070°56'8 0.8 1013.2 28.2
2015-May-23 14:00S 14°54' E 070°59'0 0.0 1014.1 28.2
2015-May-23 13:00S 14°54' E 070°59'4 0.5 1013.8 28.2
2015-May-23 05:00S 14°53' E 071°02'3 0.2 1014.6 28.3
2015-May-22 17:00S 14°51' E 071°05'0 0.5 1013.7 28.3
2015-May-22 16:00S 14°51' E 071°05'10 0.5 1013.5 28.3
2015-May-21 22:00S 14°42' E 071°07'4 1.8 1012.7 28.2
2015-May-21 20:00S 14°38' E 071°08'3 0.5 1013.5 28.3
2015-May-21 14:00S 14°36' E 071°10'1 0.8 1013.4 28.3
2015-May-21 13:00S 14°36' E 071°11'7 0.9 1013.0 28.3
2015-May-21 05:00S 14°33' E 071°17'2 0.6 1014.2 28.2
2015-May-21 01:00S 14°33' E 071°20'1 0.6 1012.6 28.2
2015-May-20 23:00S 14°33' E 071°21'1 0.5 1011.9 28.2
2015-May-20 22:00S 14°33' E 071°21'0 0.0 1012.5 28.2
2015-May-20 21:00S 14°33' E 071°21'1 0.1 1013.1 28.2
2015-May-20 12:00S 14°33' E 071°22'1 0.3 1011.4 28.4
2015-May-20 09:00S 14°33' E 071°22'5 0.8 1010.8 28.3
2015-May-20 03:00S 14°28' E 071°23'6 0.7 1011.7 28.2
2015-May-19 18:00S 14°23' E 071°27'0 0.0 1012.0 28.2
2015-May-19 17:00S 14°23' E 071°27'4 1.2 1011.8 28.2
2015-May-19 14:00S 14°21' E 071°30'1 0.4 1010.9 28.2
2015-May-19 12:00S 14°21' E 071°31'2 0.7 1009.6 28.2
2015-May-19 09:00S 14°21' E 071°33'3 0.9 1009.3 28.3
2015-May-19 05:00S 14°20' E 071°36'1 0.4 1012.0 28.2
2015-May-19 02:00S 14°19' E 071°37'2 2.0 1011.0 28.2
2015-May-19 01:00S 14°19' E 071°39'0 0.0 1010.5 28.2
2015-May-19 00:00S 14°19' E 071°39'1 0.5 1009.9 28.2
2015-May-18 22:00S 14°19' E 071°40'1 0.7 1010.0 28.2
2015-May-18 20:00S 14°18' E 071°42'0 0.0 1011.0 28.2
2015-May-18 19:00S 14°18' E 071°42'0 0.0 1011.3 28.2
2015-May-18 17:00S 14°18' E 071°42'4 0.9 1011.9 28.2
2015-May-18 13:00S 14°17' E 071°45'1 0.4 1010.0 28.3
2015-May-18 11:00S 14°16' E 071°45'0 0.0 1009.2 28.3
2015-May-18 09:00S 14°16' E 071°45'3 0.6 1009.3 28.3
2015-May-18 05:00S 14°14' E 071°47'0 0.3 1011.2 28.3
2015-May-18 04:00S 14°14' E 071°47'2 0.7 1010.9 28.2
2015-May-18 01:00S 14°13' E 071°49'3 1.4 1009.8 28.2
2015-May-17 23:00S 14°11' E 071°51'0 0.0 1008.7 28.2
2015-May-17 22:00S 14°11' E 071°51'0 0.0 1009.1 28.2
2015-May-17 21:00S 14°11' E 071°51'3 0.9 1009.1 28.2
2015-May-17 17:00S 14°09' E 071°54'1 0.7 1010.5 28.2
2015-May-17 16:00S 14°09' E 071°55'4 1.2 1010.9 28.3
2015-May-17 13:00S 14°08' E 071°58'9 0.7 1009.2 28.3
2015-May-17 00:00S 14°09' E 072°07'3 0.8 1009.3 28.2
2015-May-16 21:00S 14°09' E 072°10'2 0.2 1009.6 28.2
2015-May-16 11:00S 14°09' E 072°12'0 0.0 1009.2 28.3
2015-May-16 10:00S 14°09' E 072°12'2 1.6 1009.4 28.3
2015-May-16 09:00S 14°07' E 072°13'2 1.7 1009.9 28.3
2015-May-16 08:00S 14°07' E 072°14'0 0.0 1010.7 28.3
2015-May-16 05:00S 14°07' E 072°14'1 0.4 1012.4 28.3
2015-May-16 02:00S 14°08' E 072°16'3 1.7 1011.1 28.2
2015-May-16 00:00S 14°06' E 072°19'   1010.5 28.2

Dump ship's entire track history